This is the latest recevied weather packets stored in our database for station/object KC8QDR-1. If no packets are shown the sender has not sent any weather packets the latest 10 day(s).
| Time | Temp. | Humidity | Pressure | Rain* | Wind** | Luminosity | Snow |
|---|---|---|---|---|---|---|---|
| 1777344524 | 18.89° C | 46% | 1021.5 hPa | 0 mm | 0 m/s | - | - |
| 1777343924 | 18.89° C | 46% | 1021.2 hPa | 0 mm | 0 m/s | - | - |
| 1777342726 | 18.89° C | 46% | 1022 hPa | 0 mm | 0 m/s | - | - |
| 1777342124 | 19.44° C | 44% | 1022.3 hPa | 0 mm | 0 m/s | - | - |
| 1777341524 | 19.44° C | 45% | 1022.6 hPa | 0 mm | 0 m/s | - | - |
| 1777340924 | 19.44° C | 44% | 1022.8 hPa | 0 mm | 0 m/s | - | - |
| 1777340324 | 19.44° C | 44% | 1023.4 hPa | 0 mm | 0 m/s | - | - |
| 1777339724 | 20° C | 42% | 1023.6 hPa | 0 mm | 0 m/s | - | - |
| 1777339126 | 20° C | 44% | 1023.7 hPa | 0 mm | 0 m/s | - | - |
| 1777337924 | 20° C | 42% | 1023.8 hPa | 0 mm | 0 m/s | - | - |
| 1777337325 | 20° C | 45% | 1024.1 hPa | 0 mm | 0 m/s | - | - |
| 1777331927 | 21.11° C | 41% | 1024.8 hPa | 0 mm | 0 m/s | - | - |
| 1777328327 | 22.22° C | 36% | 1025.1 hPa | 0 mm | 0 m/s | - | - |
| 1777311524 | 20.56° C | 45% | 1027.3 hPa | 0 mm | 0 m/s | - | - |
| 1777310324 | 19.44° C | 50% | 1027.3 hPa | 0 mm | 0 m/s | - | - |
| 1777304324 | 16.11° C | 60% | 1027.4 hPa | 0 mm | 0 m/s | - | - |
| 1777300724 | 14.44° C | 62% | 1028 hPa | 0 mm | 0 m/s | - | - |
| 1777300124 | 13.89° C | 67% | 1027.9 hPa | 0 mm | 0 m/s | - | - |
| 1777299524 | 13.89° C | 68% | 1028 hPa | 0 mm | 0 m/s | - | - |
| 1777298924 | 13.89° C | 68% | 1027.9 hPa | 0 mm | 0 m/s | - | - |
| 1777295324 | 12.78° C | 74% | 1027.9 hPa | 0 mm | 0 m/s | - | - |
| 1777294725 | 12.22° C | 75% | 1027.9 hPa | 0 mm | 0 m/s | - | - |
| 1777294125 | 11.67° C | 77% | 1027.9 hPa | 0 mm | 0.89 m/s, 197° | - | - |
| 1777293524 | 11.11° C | 82% | 1027.9 hPa | 0 mm | 0.89 m/s, 200° | - | - |
| 1777292924 | 10° C | 83% | 1027.9 hPa | 0 mm | 0.45 m/s, 149° | - | - |
* Rain latest hour (hover to see other rain measurements)
** Current wind speed in m/s (hover to see current wind gust speed)